San Antonio, TX (78235)

11:48 AM CDT on September 03, 2015 (GMT -0500)
LIME Factory | | Change Station
CLOSE
Current Station
Personal Weather Station
Location: San Antonio, TX
Elevation: 653 ft
Nearby Weather Stations

Elev 653 ft 29.41 °N, 98.48 °W | Updated 42 seconds ago

Scattered Clouds
Scattered Clouds
86.4 °F
Feels Like 93 °F
N
4.0
Wind Variable Wind from SE
Gusts 8.0 mph

Today
High -- | Low -- °F
--% Chance of Precip.
Yesterday
High -- | Low -- °F
Precip. -- in
7:12 AM 7:53 PM
Waning Gibbous, 69% visible
Pressure 29.92 in
Visibility 10.0 miles
Clouds Few 2400 ft
Scattered Clouds 5000 ft
Heat Index 93 °F
Dew Point 72 °F
Humidity 62%
Rainfall 0.00 in
Snow Depth Not available.
UV 8.0 out of 12
Pollen 8.80 out of 12
Air Quality Not available.
Flu Activity Not available.
METAR KSSF 031553Z 00000KT 10SM FEW024 SCT050 29/22 A2995 RMK AO2 SLP131 T02890217
Pressure 29.92 in
Visibility 10.0 miles
Clouds Few 2400 ft
Scattered Clouds 5000 ft
Heat Index 93 °F
Dew Point 72 °F
Humidity 62%
Rainfall 0.00 in
Snow Depth Not available.
UV 8.0 out of 12
Pollen 8.80 out of 12
Air Quality Not available.
Flu Activity Not available.
METAR KSSF 031553Z 00000KT 10SM FEW024 SCT050 29/22 A2995 RMK AO2 SLP131 T02890217

10-Day Weather Forecast

×

Almanac

Astronomy

Sep. 03, 2015 Rise Set
Actual Time
Civil Twilight
Nautical Twilight
Astronomical Twilight
Moon
Length of Visible Light
Length of Day
Tomorrow will be .
, % of the Moon is Illuminated

Today's Extremes

State Highs State Lows

Community

WunderPhotos

Upload Photos

1,851,988 photos uploaded!

WunderBlogs® & News

Nearby

Air Quality

  Air Quality AQ Index Pollutant
Not available.

Snow Depth

Station Depth Elevation

Earthquake Activity

City Distance Mag. Time & Date
Minimum magnitude displayed is 2.5.

Coastal Water Temperatures

Place Temperature

Stations

Nearby Weather Stations

Station Location Temp. Windchill Dew Point Humidity Wind Precip. Elev Updated Type